createdAt,value
2023-03-15T00:03:10.743Z,4.05
2023-03-15T00:07:12.129Z,4.01
2023-03-15T00:11:13.806Z,3.96
2023-03-15T00:15:15.215Z,3.88
2023-03-15T00:19:17.976Z,3.96
2023-03-15T00:23:19.324Z,3.87
2023-03-15T00:27:20.710Z,3.78
2023-03-15T00:31:23.533Z,3.76
2023-03-15T00:35:26.552Z,3.82
2023-03-15T00:39:27.899Z,3.84
2023-03-15T00:43:29.266Z,3.74
2023-03-15T00:47:30.823Z,3.74
2023-03-15T00:51:33.634Z,3.77
2023-03-15T00:55:35.334Z,3.69
2023-03-15T00:59:36.762Z,3.61
2023-03-15T01:03:38.482Z,3.55
2023-03-15T01:07:41.444Z,3.57
2023-03-15T01:11:42.847Z,3.43
2023-03-15T01:15:45.467Z,3.38
2023-03-15T01:19:46.842Z,3.43
2023-03-15T01:23:49.640Z,3.38
2023-03-15T01:27:51.026Z,3.31
2023-03-15T01:31:52.411Z,3.46
2023-03-15T01:35:58.194Z,3.38
2023-03-15T01:40:01.096Z,3.35
2023-03-15T01:44:02.534Z,3.23
2023-03-15T01:48:04.232Z,3.14
2023-03-15T01:52:06.909Z,3.12
2023-03-15T01:56:10.093Z,3.09
2023-03-15T02:00:13.130Z,3.10
2023-03-15T02:04:16.824Z,3.01
2023-03-15T02:08:19.058Z,2.99
2023-03-15T02:12:21.855Z,3.20
2023-03-15T02:16:24.776Z,3.12
2023-03-15T02:20:31.005Z,3.04
2023-03-15T02:24:38.969Z,3.10
2023-03-15T02:28:42.355Z,3.06
2023-03-15T02:32:43.919Z,2.97
2023-03-15T02:36:45.334Z,3.05
2023-03-15T02:40:46.723Z,2.97
2023-03-15T02:44:50.698Z,2.97
2023-03-15T02:48:52.696Z,2.98
2023-03-15T02:52:54.128Z,3.14
2023-03-15T02:56:55.520Z,3.11
2023-03-15T03:00:58.281Z,2.93
2023-03-15T03:04:59.655Z,2.77
2023-03-15T03:09:01.027Z,2.63
2023-03-15T03:13:02.418Z,2.76
2023-03-15T03:17:05.230Z,2.76
2023-03-15T03:21:07.303Z,2.80
2023-03-15T03:25:09.288Z,2.82
2023-03-15T03:29:10.633Z,2.76
2023-03-15T03:33:13.366Z,2.75
2023-03-15T03:37:14.902Z,2.61
2023-03-15T03:41:16.283Z,2.53
2023-03-15T03:45:17.793Z,2.71
2023-03-15T03:49:20.540Z,2.63
2023-03-15T03:53:21.942Z,2.58
2023-03-15T03:57:23.350Z,2.48
2023-03-15T04:01:24.738Z,2.47
2023-03-15T04:05:27.586Z,2.50
2023-03-15T04:09:28.996Z,2.43
2023-03-15T04:13:30.655Z,2.33
2023-03-15T04:17:32.005Z,2.07
2023-03-15T04:21:34.732Z,2.18
2023-03-15T04:25:36.071Z,2.24
2023-03-15T04:29:37.415Z,2.14
2023-03-15T04:33:38.757Z,2.16
2023-03-15T04:37:41.498Z,2.25
2023-03-15T04:41:42.997Z,2.21
2023-03-15T04:45:44.336Z,2.15
2023-03-15T04:49:45.664Z,2.20
2023-03-15T04:53:48.361Z,2.29
2023-03-15T04:57:49.745Z,2.27
2023-03-15T05:01:51.150Z,2.45
2023-03-15T05:05:52.561Z,2.35
2023-03-15T05:09:55.261Z,2.39
2023-03-15T05:13:56.612Z,2.19
2023-03-15T05:17:57.940Z,2.28
2023-03-15T05:21:59.328Z,2.32
2023-03-15T05:26:02.081Z,2.41
2023-03-15T05:30:04.396Z,2.51
2023-03-15T05:34:06.120Z,2.44
2023-03-15T05:38:07.523Z,2.47
2023-03-15T05:42:10.246Z,2.46
2023-03-15T05:46:11.646Z,2.37
2023-03-15T05:50:13.071Z,2.39
2023-03-15T05:54:14.416Z,2.28
2023-03-15T05:58:17.101Z,2.34
2023-03-15T06:02:18.476Z,2.09
2023-03-15T06:06:20.313Z,1.86
2023-03-15T06:10:22.046Z,1.91
2023-03-15T06:14:24.848Z,1.78
2023-03-15T06:18:26.192Z,2.05
2023-03-15T06:22:27.826Z,2.10
2023-03-15T06:26:29.208Z,2.15
2023-03-15T06:30:31.983Z,2.25
2023-03-15T06:34:33.379Z,2.22
2023-03-15T06:38:34.726Z,2.60
2023-03-15T06:42:36.199Z,2.69
2023-03-15T06:46:38.931Z,2.77
2023-03-15T06:50:46.932Z,2.90
2023-03-15T06:54:48.878Z,3.04
2023-03-15T06:58:50.202Z,3.13
2023-03-15T07:02:53.007Z,3.30
2023-03-15T07:06:54.652Z,3.56
2023-03-15T07:10:55.994Z,3.61
2023-03-15T07:14:57.349Z,3.60
2023-03-15T07:19:00.666Z,3.44
2023-03-15T07:23:02.055Z,3.42
2023-03-15T07:27:03.570Z,3.45
2023-03-15T07:31:05.910Z,3.63
2023-03-15T07:35:09.850Z,3.64
2023-03-15T07:39:12.478Z,3.75
2023-03-15T07:43:13.852Z,3.88
2023-03-15T07:47:15.219Z,4.00
2023-03-15T07:51:17.931Z,4.28
2023-03-15T07:55:19.372Z,4.37
2023-03-15T07:59:20.737Z,4.06
2023-03-15T08:03:22.215Z,3.98
2023-03-15T08:07:24.990Z,4.02
2023-03-15T08:11:26.359Z,4.06
2023-03-15T08:15:27.708Z,3.97
2023-03-15T08:19:29.034Z,3.93
2023-03-15T08:23:31.760Z,4.11
2023-03-15T08:27:33.104Z,4.46
2023-03-15T08:31:34.738Z,4.62
2023-03-15T08:35:36.142Z,4.44
2023-03-15T08:39:38.971Z,4.68
2023-03-15T08:43:40.362Z,4.95
2023-03-15T08:47:42.172Z,5.57
2023-03-15T08:51:43.679Z,5.82
2023-03-15T08:55:47.523Z,6.12
2023-03-15T08:59:48.856Z,6.37
2023-03-15T09:03:50.189Z,5.98
2023-03-15T09:07:51.780Z,5.58
2023-03-15T09:11:54.492Z,5.25
2023-03-15T09:15:56.545Z,5.30
2023-03-15T09:19:57.886Z,5.52
2023-03-15T09:23:59.315Z,5.85
2023-03-15T09:28:02.139Z,6.20
2023-03-15T09:32:03.609Z,6.35
2023-03-15T09:36:05.171Z,6.17
2023-03-15T09:40:07.418Z,5.94
2023-03-15T09:44:14.806Z,5.86
2023-03-15T09:48:19.763Z,5.56
2023-03-15T09:52:33.340Z,5.71
2023-03-15T09:56:36.422Z,5.85
2023-03-15T10:00:41.344Z,6.07
2023-03-15T10:04:43.470Z,5.78
2023-03-15T10:08:45.633Z,6.09
2023-03-15T10:12:51.107Z,5.93
2023-03-15T10:16:53.814Z,6.23
2023-03-15T10:20:59.585Z,6.47
2023-03-15T10:25:04.431Z,6.56
2023-03-15T10:29:11.896Z,6.44
2023-03-15T10:33:16.411Z,6.50
2023-03-15T10:37:17.837Z,6.53
2023-03-15T10:41:29.369Z,6.67
2023-03-15T10:45:30.737Z,6.61
2023-03-15T10:49:37.151Z,6.39
2023-03-15T10:53:47.703Z,6.39
2023-03-15T10:57:52.713Z,6.55
2023-03-15T11:02:06.936Z,6.79
2023-03-15T11:06:20.530Z,6.71
2023-03-15T11:10:22.508Z,6.94
2023-03-15T11:14:23.949Z,6.99
2023-03-15T11:18:27.119Z,6.60
2023-03-15T11:22:29.896Z,6.60
2023-03-15T11:26:33.578Z,6.60
2023-03-15T11:30:35.861Z,6.61
2023-03-15T11:34:38.532Z,6.86
2023-03-15T11:38:42.431Z,6.75
2023-03-15T11:42:48.087Z,6.42
2023-03-15T11:46:50.402Z,6.16
2023-03-15T11:50:52.650Z,6.16
2023-03-15T11:54:57.351Z,6.40
2023-03-15T11:59:06.746Z,6.82
2023-03-15T12:03:24.104Z,7.41
2023-03-15T12:07:36.764Z,7.28
2023-03-15T12:11:41.006Z,6.94
2023-03-15T12:15:46.570Z,6.87
2023-03-15T12:19:47.980Z,6.83
2023-03-15T12:23:56.953Z,7.22
2023-03-15T12:27:59.868Z,7.27
2023-03-15T12:32:07.242Z,7.43
2023-03-15T12:36:09.669Z,7.25
2023-03-15T12:40:35.123Z,7.28
2023-03-15T12:44:39.005Z,7.08
2023-03-15T12:49:00.403Z,6.78
2023-03-15T12:53:02.545Z,6.93
2023-03-15T12:57:04.356Z,7.12
2023-03-15T13:01:08.034Z,7.09
2023-03-15T13:05:23.953Z,6.79
2023-03-15T13:09:40.192Z,7.00
2023-03-15T13:13:50.126Z,7.10
2023-03-15T13:17:56.685Z,7.17
2023-03-15T13:22:05.492Z,6.93
2023-03-15T13:26:14.875Z,6.90
2023-03-15T13:30:36.668Z,6.74
2023-03-15T13:34:39.868Z,6.48
2023-03-15T13:38:42.335Z,6.22
2023-03-15T13:42:43.741Z,6.17
2023-03-15T13:46:46.232Z,5.99
2023-03-15T13:50:50.091Z,6.13
2023-03-15T13:54:53.349Z,6.07
2023-03-15T13:58:56.765Z,6.00
2023-03-15T14:03:00.480Z,6.11
2023-03-15T14:07:07.729Z,5.93
2023-03-15T14:11:11.031Z,5.57
2023-03-15T14:15:14.890Z,5.63
2023-03-15T14:19:18.760Z,5.42
2023-03-15T14:23:24.335Z,5.04
2023-03-15T14:27:26.593Z,5.06
2023-03-15T14:31:32.496Z,5.00
2023-03-15T14:35:41.500Z,5.07
2023-03-15T14:39:44.253Z,4.98
2023-03-15T14:43:45.629Z,5.14
2023-03-15T14:47:57.074Z,5.15
2023-03-15T14:52:00.196Z,5.31
2023-03-15T14:56:03.068Z,5.21
2023-03-15T15:00:05.025Z,5.27
2023-03-15T15:04:06.773Z,5.35
2023-03-15T15:08:10.432Z,5.41
2023-03-15T15:12:13.508Z,5.43
2023-03-15T15:16:14.859Z,5.43
2023-03-15T15:20:16.487Z,5.29
2023-03-15T15:24:19.919Z,5.14
2023-03-15T15:28:34.214Z,5.03
2023-03-15T15:32:37.048Z,4.96
2023-03-15T15:36:39.582Z,4.97
2023-03-15T15:40:41.168Z,5.11
2023-03-15T15:44:43.870Z,5.17
2023-03-15T15:48:45.254Z,5.10
2023-03-15T15:52:48.394Z,4.91
2023-03-15T15:56:51.845Z,5.04
2023-03-15T16:00:54.593Z,4.94
2023-03-15T16:04:56.003Z,5.00
2023-03-15T16:08:57.686Z,4.97
2023-03-15T16:12:59.066Z,4.82
2023-03-15T16:17:01.830Z,4.60
2023-03-15T16:21:03.278Z,4.54
2023-03-15T16:25:06.475Z,4.56
2023-03-15T16:29:13.542Z,4.51
2023-03-15T16:33:17.150Z,4.46
2023-03-15T16:37:21.657Z,4.45
2023-03-15T16:41:23.060Z,4.34
2023-03-15T16:45:24.991Z,4.21
2023-03-15T16:49:27.717Z,4.26
2023-03-15T16:53:29.099Z,4.12
2023-03-15T16:57:30.549Z,4.25
2023-03-15T17:01:32.313Z,4.23
2023-03-15T17:05:35.047Z,4.23
2023-03-15T17:09:36.778Z,4.09
2023-03-15T17:13:39.867Z,4.03
2023-03-15T17:17:41.201Z,4.00
2023-03-15T17:21:43.962Z,3.86
2023-03-15T17:25:45.350Z,3.81
2023-03-15T17:29:46.769Z,3.86
2023-03-15T17:33:48.151Z,3.93
2023-03-15T17:37:50.899Z,3.79
2023-03-15T17:41:52.265Z,3.67
2023-03-15T17:45:54.074Z,3.69
2023-03-15T17:49:55.427Z,3.29
2023-03-15T17:53:58.545Z,3.07
2023-03-15T17:57:59.920Z,3.15
2023-03-15T18:02:01.290Z,2.98
2023-03-15T18:06:02.645Z,2.70
2023-03-15T18:10:06.140Z,2.67
2023-03-15T18:14:10.149Z,2.50
2023-03-15T18:18:11.824Z,2.42
2023-03-15T18:22:15.720Z,2.31
2023-03-15T18:26:19.139Z,2.19
2023-03-15T18:30:21.649Z,2.08
2023-03-15T18:34:22.988Z,2.19
2023-03-15T18:38:24.369Z,2.16
2023-03-15T18:42:27.117Z,2.19
2023-03-15T18:46:28.562Z,2.27
2023-03-15T18:50:30.218Z,2.22
2023-03-15T18:54:31.576Z,2.35
2023-03-15T18:58:34.312Z,2.36
2023-03-15T19:02:35.687Z,2.31
2023-03-15T19:06:37.170Z,2.16
2023-03-15T19:10:38.558Z,2.05
2023-03-15T19:14:41.261Z,2.10
2023-03-15T19:18:42.721Z,2.14
2023-03-15T19:22:44.197Z,2.22
2023-03-15T19:26:45.544Z,2.25
2023-03-15T19:30:48.625Z,2.30
2023-03-15T19:34:50.068Z,2.11
2023-03-15T19:38:51.412Z,2.08
2023-03-15T19:42:52.851Z,1.98
2023-03-15T19:46:55.595Z,2.03
2023-03-15T19:50:56.999Z,2.11
2023-03-15T19:54:58.705Z,2.05
2023-03-15T19:59:00.104Z,2.00
2023-03-15T20:03:02.857Z,1.76
2023-03-15T20:07:04.274Z,1.63
2023-03-15T20:11:06.326Z,1.32
2023-03-15T20:15:08.594Z,1.30
2023-03-15T20:19:11.324Z,1.32
2023-03-15T20:23:12.737Z,0.98
2023-03-15T20:27:14.100Z,0.78
2023-03-15T20:31:16.474Z,0.65
2023-03-15T20:35:19.302Z,0.62
2023-03-15T20:39:20.683Z,0.62
2023-03-15T20:43:22.528Z,0.60
2023-03-15T20:47:23.936Z,0.40
2023-03-15T20:51:26.694Z,0.32
2023-03-15T20:55:28.023Z,0.28
2023-03-15T20:59:29.476Z,0.26
2023-03-15T21:03:30.911Z,0.40
2023-03-15T21:07:33.647Z,0.20
2023-03-15T21:11:34.991Z,-0.01
2023-03-15T21:15:36.461Z,0.04
2023-03-15T21:19:37.877Z,0.01
2023-03-15T21:23:40.605Z,-0.11
2023-03-15T21:27:41.953Z,-0.12
2023-03-15T21:31:43.330Z,-0.04
2023-03-15T21:35:44.907Z,-0.19
2023-03-15T21:39:47.696Z,-0.21
2023-03-15T21:43:49.161Z,-0.27
2023-03-15T21:47:50.520Z,-0.24
2023-03-15T21:51:51.847Z,-0.38
2023-03-15T21:55:56.528Z,-0.50
2023-03-15T21:59:57.861Z,-0.45
2023-03-15T22:03:59.208Z,-0.49
2023-03-15T22:08:00.656Z,-0.70
2023-03-15T22:12:03.521Z,-0.81
2023-03-15T22:16:05.283Z,-0.88
2023-03-15T22:20:07.656Z,-0.90
2023-03-15T22:24:09.170Z,-0.96
2023-03-15T22:28:11.891Z,-0.96
2023-03-15T22:32:13.288Z,-1.06
2023-03-15T22:36:14.694Z,-1.05
2023-03-15T22:40:16.117Z,-1.07
2023-03-15T22:44:18.849Z,-1.08
2023-03-15T22:48:20.206Z,-1.10
2023-03-15T22:52:21.543Z,-1.15
2023-03-15T22:56:22.896Z,-1.29
2023-03-15T23:00:25.876Z,-1.26
2023-03-15T23:04:27.459Z,-1.33
2023-03-15T23:08:28.834Z,-1.38
2023-03-15T23:12:35.879Z,-1.46
2023-03-15T23:16:39.153Z,-1.53
2023-03-15T23:20:40.729Z,-1.53
2023-03-15T23:24:42.082Z,-1.48
2023-03-15T23:28:43.461Z,-1.56
2023-03-15T23:32:47.634Z,-1.64
2023-03-15T23:36:49.248Z,-1.70
2023-03-15T23:40:54.555Z,-1.71
2023-03-15T23:44:55.885Z,-1.83
2023-03-15T23:48:58.590Z,-1.83
2023-03-15T23:52:59.934Z,-1.90
2023-03-15T23:57:01.277Z,-1.89
